Time,TemperatureF,DewpointF,PressureIn,WindDirection,WindDirectionDegrees,WindSpeedMPH,WindSpeedGustMPH,Humidity,HourlyPrecipIn,Conditions,Clouds,dailyrainin,SoftwareType,DateUTC
2013-11-22 00:02:00,18.3,-6.0,24.42,West,270,27.0,34.0,33,0.00,,,0.00,meteohub,2013-11-22 07:02:00,
2013-11-22 00:07:00,18.3,-6.0,24.42,North,-999,-999.0,34.0,33,0.00,,,0.00,meteohub,2013-11-22 07:07:00,
2013-11-22 00:12:00,18.3,-4.7,24.42,West,270,28.0,32.0,35,0.00,,,0.00,meteohub,2013-11-22 07:12:00,
2013-11-22 00:17:00,18.5,-4.5,24.42,NW,315,23.0,28.0,35,0.00,,,0.00,meteohub,2013-11-22 07:17:00,
2013-11-22 00:22:00,18.7,-5.1,24.42,NW,315,29.0,30.0,34,0.00,,,0.00,meteohub,2013-11-22 07:22:00,
2013-11-22 00:27:00,18.9,-5.4,24.42,West,270,28.0,30.0,33,0.00,,,0.00,meteohub,2013-11-22 07:27:00,
2013-11-22 00:32:00,19.0,-5.3,24.42,West,270,31.0,31.0,33,0.00,,,0.00,meteohub,2013-11-22 07:32:00,
2013-11-22 00:37:00,18.9,-4.9,24.43,West,270,23.0,32.0,34,0.00,,,0.00,meteohub,2013-11-22 07:37:00,
2013-11-22 00:42:00,18.9,-4.4,24.43,West,270,26.0,32.0,35,0.00,,,0.00,meteohub,2013-11-22 07:42:00,
2013-11-22 00:47:00,18.9,-4.4,24.43,NW,315,21.0,31.0,35,0.00,,,0.00,meteohub,2013-11-22 07:47:00,
2013-11-22 00:52:00,19.0,-4.7,24.43,WNW,293,20.0,28.0,34,0.00,,,0.00,meteohub,2013-11-22 07:52:00,
2013-11-22 00:57:00,18.7,-4.4,24.43,West,270,20.0,27.0,35,0.00,,,0.00,meteohub,2013-11-22 07:57:00,
2013-11-22 01:02:00,18.5,-4.0,24.43,NW,315,15.0,27.0,36,0.00,,,0.00,meteohub,2013-11-22 08:02:00,
2013-11-22 01:07:00,18.5,-4.0,24.43,NW,315,15.0,22.0,36,0.00,,,0.00,meteohub,2013-11-22 08:07:00,
2013-11-22 01:12:00,18.5,-5.3,24.42,SW,225,26.0,26.0,34,0.00,,,0.00,meteohub,2013-11-22 08:12:00,
2013-11-22 01:17:00,18.3,-4.2,24.41,WSW,248,23.0,30.0,36,0.00,,,0.00,meteohub,2013-11-22 08:17:00,
2013-11-22 01:22:00,18.7,-5.1,24.41,SW,225,27.0,30.0,34,0.00,,,0.00,meteohub,2013-11-22 08:22:00,
2013-11-22 01:32:00,18.1,-4.4,24.42,SW,225,25.0,31.0,36,0.00,,,0.00,meteohub,2013-11-22 08:32:00,
2013-11-22 01:37:00,18.1,-3.8,24.42,West,270,23.0,31.0,37,0.00,,,0.00,meteohub,2013-11-22 08:37:00,
2013-11-22 01:42:00,18.3,-4.2,24.42,West,270,27.0,32.0,36,0.00,,,0.00,meteohub,2013-11-22 08:42:00,
2013-11-22 01:47:00,18.7,-3.8,24.42,NW,315,25.0,32.0,36,0.00,,,0.00,meteohub,2013-11-22 08:47:00,
2013-11-22 01:52:00,18.5,-4.0,24.42,West,270,17.0,29.0,36,0.00,,,0.00,meteohub,2013-11-22 08:52:00,
2013-11-22 01:57:00,18.7,-3.8,24.42,NW,315,20.0,29.0,36,0.00,,,0.00,meteohub,2013-11-22 08:57:00,
2013-11-22 02:02:00,18.5,-3.5,24.42,NW,315,17.0,28.0,37,0.00,,,0.00,meteohub,2013-11-22 09:02:00,
2013-11-22 02:07:00,18.5,-3.5,24.42,NW,315,17.0,23.0,37,0.00,,,0.00,meteohub,2013-11-22 09:07:00,
2013-11-22 02:12:00,18.5,-3.5,24.42,NW,315,18.0,25.0,37,0.00,,,0.00,meteohub,2013-11-22 09:12:00,
2013-11-22 02:17:00,18.3,-3.6,24.43,NW,315,26.0,28.0,37,0.00,,,0.00,meteohub,2013-11-22 09:17:00,
2013-11-22 02:22:00,18.0,-3.5,24.43,North,0,17.0,28.0,38,0.00,,,0.00,meteohub,2013-11-22 09:22:00,
2013-11-22 02:27:00,18.1,-3.3,24.43,NW,315,15.0,26.0,38,0.00,,,0.00,meteohub,2013-11-22 09:27:00,
2013-11-22 02:32:00,18.1,-3.3,24.43,WNW,293,12.0,26.0,38,0.00,,,0.00,meteohub,2013-11-22 09:32:00,
2013-11-22 02:37:00,17.6,-3.1,24.43,NW,315,10.0,20.0,39,0.00,,,0.00,meteohub,2013-11-22 09:37:00,
2013-11-22 02:42:00,18.0,-3.5,24.44,NW,315,11.0,17.0,38,0.00,,,0.00,meteohub,2013-11-22 09:42:00,
2013-11-22 02:47:00,18.3,-3.6,24.44,NW,315,11.0,15.0,37,0.00,,,0.00,meteohub,2013-11-22 09:47:00,
2013-11-22 02:52:00,18.0,-4.0,24.44,North,0,12.0,18.0,37,0.00,,,0.00,meteohub,2013-11-22 09:52:00,
2013-11-22 02:57:00,18.1,-3.3,24.45,NW,315,14.0,18.0,38,0.00,,,0.00,meteohub,2013-11-22 09:57:00,
2013-11-22 03:02:00,18.3,-3.1,24.45,NW,315,15.0,18.0,38,0.00,,,0.00,meteohub,2013-11-22 10:02:00,
2013-11-22 03:07:00,18.3,-3.1,24.44,NW,315,15.0,17.0,38,0.00,,,0.00,meteohub,2013-11-22 10:07:00,
2013-11-22 03:12:00,18.7,-3.8,24.45,NW,315,15.0,17.0,36,0.00,,,0.00,meteohub,2013-11-22 10:12:00,
2013-11-22 03:17:00,19.4,-4.4,24.45,NW,315,15.0,17.0,34,0.00,,,0.00,meteohub,2013-11-22 10:17:00,
2013-11-22 03:22:00,19.4,-4.4,24.44,West,270,19.0,19.0,34,0.00,,,0.00,meteohub,2013-11-22 10:22:00,
2013-11-22 03:27:00,20.1,-5.1,24.45,West,270,20.0,20.0,32,0.00,,,0.00,meteohub,2013-11-22 10:27:00,
2013-11-22 03:32:00,20.1,-5.6,24.45,NW,315,15.0,27.0,31,0.00,,,0.00,meteohub,2013-11-22 10:32:00,
2013-11-22 03:37:00,20.1,-5.1,24.45,NW,315,25.0,27.0,32,0.00,,,0.00,meteohub,2013-11-22 10:37:00,
2013-11-22 03:42:00,20.3,-4.9,24.45,NW,315,17.0,27.0,32,0.00,,,0.00,meteohub,2013-11-22 10:42:00,
2013-11-22 03:47:00,19.9,-4.5,24.45,West,270,12.0,26.0,33,0.00,,,0.00,meteohub,2013-11-22 10:47:00,
2013-11-22 03:52:00,18.9,-3.6,24.45,NW,315,13.0,26.0,36,0.00,,,0.00,meteohub,2013-11-22 10:52:00,
2013-11-22 03:57:00,18.3,-3.1,24.45,NW,315,11.0,18.0,38,0.00,,,0.00,meteohub,2013-11-22 10:57:00,
2013-11-22 04:02:00,19.0,-3.5,24.45,NW,315,21.0,21.0,36,0.00,,,0.00,meteohub,2013-11-22 11:02:00,
2013-11-22 04:07:00,19.0,-3.5,24.46,NW,315,21.0,21.0,36,0.00,,,0.00,meteohub,2013-11-22 11:07:00,
2013-11-22 04:12:00,19.4,-3.3,24.45,WNW,293,17.0,21.0,36,0.00,,,0.00,meteohub,2013-11-22 11:12:00,
2013-11-22 04:17:00,19.6,-3.6,24.46,NW,315,17.0,21.0,35,0.00,,,0.00,meteohub,2013-11-22 11:17:00,
2013-11-22 04:22:00,19.6,-3.6,24.46,North,0,20.0,23.0,35,0.00,,,0.00,meteohub,2013-11-22 11:22:00,
2013-11-22 04:27:00,19.8,-1.7,24.45,NW,315,15.0,23.0,38,0.00,,,0.00,meteohub,2013-11-22 11:27:00,
2013-11-22 04:32:00,19.2,-1.7,24.46,NW,315,17.0,23.0,39,0.00,,,0.00,meteohub,2013-11-22 11:32:00,
2013-11-22 04:37:00,19.0,-1.8,24.46,NW,315,16.0,23.0,39,0.00,,,0.00,meteohub,2013-11-22 11:37:00,
2013-11-22 04:42:00,19.9,-2.2,24.46,West,270,16.0,19.0,37,0.00,,,0.00,meteohub,2013-11-22 11:42:00,
2013-11-22 04:47:00,20.7,-1.5,24.45,NW,315,21.0,21.0,37,0.00,,,0.00,meteohub,2013-11-22 11:47:00,
2013-11-22 04:52:00,20.1,-2.6,24.46,NW,315,12.0,22.0,36,0.00,,,0.00,meteohub,2013-11-22 11:52:00,
2013-11-22 04:57:00,21.0,-2.4,24.46,NW,315,19.0,22.0,35,0.00,,,0.00,meteohub,2013-11-22 11:57:00,
2013-11-22 05:02:00,21.2,-2.2,24.46,West,270,23.0,23.0,35,0.00,,,0.00,meteohub,2013-11-22 12:02:00,
2013-11-22 05:07:00,21.2,-2.2,24.47,West,270,23.0,23.0,35,0.00,,,0.00,meteohub,2013-11-22 12:07:00,
2013-11-22 05:12:00,21.2,-2.7,24.47,West,270,24.0,24.0,34,0.00,,,0.00,meteohub,2013-11-22 12:12:00,
2013-11-22 05:17:00,21.2,-1.7,24.47,West,270,13.0,24.0,36,0.00,,,0.00,meteohub,2013-11-22 12:17:00,
2013-11-22 05:22:00,21.0,-1.8,24.47,NW,315,18.0,24.0,36,0.00,,,0.00,meteohub,2013-11-22 12:22:00,
2013-11-22 05:27:00,21.2,-2.2,24.47,West,270,17.0,24.0,35,0.00,,,0.00,meteohub,2013-11-22 12:27:00,
2013-11-22 05:32:00,20.8,-1.8,24.47,West,270,17.0,21.0,36,0.00,,,0.00,meteohub,2013-11-22 12:32:00,
2013-11-22 05:37:00,20.7,-2.0,24.47,West,270,13.0,21.0,36,0.00,,,0.00,meteohub,2013-11-22 12:37:00,
2013-11-22 05:42:00,20.1,-2.0,24.48,West,270,18.0,20.0,37,0.00,,,0.00,meteohub,2013-11-22 12:42:00,
2013-11-22 05:47:00,19.8,-1.7,24.48,West,270,16.0,18.0,38,0.00,,,0.00,meteohub,2013-11-22 12:47:00,
2013-11-22 05:52:00,20.3,-1.8,24.48,West,270,18.0,18.0,37,0.00,,,0.00,meteohub,2013-11-22 12:52:00,
2013-11-22 05:57:00,19.6,-1.8,24.48,NW,315,17.0,21.0,38,0.00,,,0.00,meteohub,2013-11-22 12:57:00,
2013-11-22 06:02:00,19.4,-2.0,24.48,SW,225,22.0,22.0,38,0.00,,,0.00,meteohub,2013-11-22 13:02:00,
2013-11-22 06:07:00,19.4,-2.0,24.48,SW,225,22.0,22.0,38,0.00,,,0.00,meteohub,2013-11-22 13:07:00,
2013-11-22 06:12:00,18.9,-1.5,24.48,NW,315,13.0,22.0,40,0.00,,,0.00,meteohub,2013-11-22 13:12:00,
2013-11-22 06:17:00,19.9,-1.7,24.48,West,270,18.0,22.0,38,0.00,,,0.00,meteohub,2013-11-22 13:17:00,
2013-11-22 06:22:00,20.8,-1.8,24.48,West,270,21.0,22.0,36,0.00,,,0.00,meteohub,2013-11-22 13:22:00,
2013-11-22 06:27:00,21.0,-1.8,24.48,West,270,16.0,21.0,36,0.00,,,0.00,meteohub,2013-11-22 13:27:00,
2013-11-22 06:32:00,20.8,-1.8,24.48,West,270,14.0,22.0,36,0.00,,,0.00,meteohub,2013-11-22 13:32:00,
2013-11-22 06:37:00,20.8,-1.8,24.49,NW,315,18.0,22.0,36,0.00,,,0.00,meteohub,2013-11-22 13:37:00,
2013-11-22 06:42:00,20.8,-1.3,24.48,West,270,17.0,22.0,37,0.00,,,0.00,meteohub,2013-11-22 13:42:00,
2013-11-22 06:47:00,20.3,-1.3,24.49,NW,315,17.0,20.0,38,0.00,,,0.00,meteohub,2013-11-22 13:47:00,
2013-11-22 06:52:00,20.8,-1.3,24.49,West,270,17.0,20.0,37,0.00,,,0.00,meteohub,2013-11-22 13:52:00,
2013-11-22 06:57:00,20.1,-1.5,24.49,West,270,17.0,21.0,38,0.00,,,0.00,meteohub,2013-11-22 13:57:00,
2013-11-22 07:02:00,19.8,-1.7,24.49,West,270,17.0,21.0,38,0.00,,,0.00,meteohub,2013-11-22 14:02:00,
2013-11-22 07:07:00,19.8,-1.7,24.49,West,270,17.0,21.0,38,0.00,,,0.00,meteohub,2013-11-22 14:07:00,
2013-11-22 07:12:00,20.3,-1.3,24.49,West,270,16.0,17.0,38,0.00,,,0.00,meteohub,2013-11-22 14:12:00,
2013-11-22 07:17:00,20.7,-1.5,24.49,North,0,15.0,19.0,37,0.00,,,0.00,meteohub,2013-11-22 14:17:00,
2013-11-22 07:22:00,20.3,-1.8,24.50,North,0,17.0,23.0,37,0.00,,,0.00,meteohub,2013-11-22 14:22:00,
2013-11-22 07:27:00,19.8,-1.7,24.50,SW,225,15.0,23.0,38,0.00,,,0.00,meteohub,2013-11-22 14:27:00,
2013-11-22 07:32:00,19.8,-1.1,24.50,SW,225,15.0,23.0,39,0.00,,,0.00,meteohub,2013-11-22 14:32:00,
2013-11-22 07:37:00,19.4,-1.5,24.51,SW,225,15.0,23.0,39,0.00,,,0.00,meteohub,2013-11-22 14:37:00,
2013-11-22 07:42:00,19.9,-1.7,24.50,West,270,14.0,21.0,38,0.00,,,0.00,meteohub,2013-11-22 14:42:00,
2013-11-22 07:47:00,20.3,-2.4,24.51,SW,225,17.0,17.0,36,0.00,,,0.00,meteohub,2013-11-22 14:47:00,
2013-11-22 07:52:00,21.0,-2.4,24.50,NW,315,16.0,17.0,35,0.00,,,0.00,meteohub,2013-11-22 14:52:00,
2013-11-22 07:57:00,21.2,-1.7,24.51,West,270,18.0,19.0,36,0.00,,,0.00,meteohub,2013-11-22 14:57:00,
2013-11-22 08:02:00,21.9,-2.7,24.51,NW,315,13.0,19.0,33,0.00,,,0.00,meteohub,2013-11-22 15:02:00,
2013-11-22 08:07:00,21.9,-2.7,24.51,NW,315,13.0,19.0,33,0.00,,,0.00,meteohub,2013-11-22 15:07:00,
2013-11-22 08:12:00,22.5,-1.7,24.51,West,270,16.0,21.0,34,0.00,,,0.00,meteohub,2013-11-22 15:12:00,
2013-11-22 08:17:00,22.1,-1.3,24.51,NW,315,18.0,21.0,35,0.00,,,0.00,meteohub,2013-11-22 15:17:00,
2013-11-22 08:22:00,22.5,-1.1,24.51,SW,225,16.0,21.0,35,0.00,,,0.00,meteohub,2013-11-22 15:22:00,
2013-11-22 08:27:00,23.2,-0.4,24.51,NW,315,11.0,18.0,35,0.00,,,0.00,meteohub,2013-11-22 15:27:00,
2013-11-22 08:32:00,23.5,-0.8,24.51,WSW,248,10.0,18.0,34,0.00,,,0.00,meteohub,2013-11-22 15:32:00,
2013-11-22 08:37:00,23.4,0.3,24.51,SSW,203,12.0,16.0,36,0.00,,,0.00,meteohub,2013-11-22 15:37:00,
2013-11-22 08:42:00,23.9,0.1,24.51,SSW,203,8.0,14.0,35,0.00,,,0.00,meteohub,2013-11-22 15:42:00,
2013-11-22 08:47:00,23.9,0.1,24.51,SW,225,11.0,12.0,35,0.00,,,0.00,meteohub,2013-11-22 15:47:00,
2013-11-22 08:52:00,24.3,1.2,24.51,South,180,9.0,12.0,36,0.00,,,0.00,meteohub,2013-11-22 15:52:00,
2013-11-22 08:57:00,24.4,1.2,24.51,South,180,6.0,13.0,36,0.00,,,0.00,meteohub,2013-11-22 15:57:00,
2013-11-22 09:02:00,24.6,0.9,24.52,SE,135,4.0,13.0,35,0.00,,,0.00,meteohub,2013-11-22 16:02:00,
2013-11-22 09:07:00,24.6,0.9,24.52,SE,135,4.0,13.0,35,0.00,,,0.00,meteohub,2013-11-22 16:07:00,
2013-11-22 09:12:00,24.3,2.3,24.53,South,180,10.0,10.0,38,0.00,,,0.00,meteohub,2013-11-22 16:12:00,
2013-11-22 09:17:00,24.8,1.6,24.52,South,180,8.0,11.0,36,0.00,,,0.00,meteohub,2013-11-22 16:17:00,
2013-11-22 09:22:00,25.0,1.2,24.53,WSW,248,7.0,11.0,35,0.00,,,0.00,meteohub,2013-11-22 16:22:00,
2013-11-22 09:27:00,25.0,3.0,24.52,SW,225,14.0,14.0,38,0.00,,,0.00,meteohub,2013-11-22 16:27:00,
2013-11-22 09:32:00,25.5,3.4,24.52,South,180,6.0,14.0,38,0.00,,,0.00,meteohub,2013-11-22 16:32:00,
2013-11-22 09:37:00,25.2,1.9,24.52,South,180,9.0,14.0,36,0.00,,,0.00,meteohub,2013-11-22 16:37:00,
2013-11-22 09:42:00,24.4,1.2,24.53,South,180,11.0,14.0,36,0.00,,,0.00,meteohub,2013-11-22 16:42:00,
2013-11-22 09:47:00,25.0,2.3,24.53,South,180,10.0,12.0,37,0.00,,,0.00,meteohub,2013-11-22 16:47:00,
2013-11-22 09:52:00,24.4,3.0,24.53,SE,135,9.0,12.0,39,0.00,,,0.00,meteohub,2013-11-22 16:52:00,
2013-11-22 09:57:00,24.4,3.6,24.53,SE,135,8.0,12.0,40,0.00,,,0.00,meteohub,2013-11-22 16:57:00,
2013-11-22 10:02:00,24.3,4.5,24.53,South,180,8.0,11.0,42,0.00,,,0.00,meteohub,2013-11-22 17:02:00,
2013-11-22 10:07:00,24.3,4.5,24.53,South,180,8.0,11.0,42,0.00,,,0.00,meteohub,2013-11-22 17:07:00,
2013-11-22 10:12:00,25.7,4.1,24.53,South,180,8.0,10.0,39,0.00,,,0.00,meteohub,2013-11-22 17:12:00,
2013-11-22 10:17:00,25.2,3.7,24.53,South,180,11.0,11.0,39,0.00,,,0.00,meteohub,2013-11-22 17:17:00,
2013-11-22 10:22:00,24.8,3.4,24.53,South,180,8.0,11.0,39,0.00,,,0.00,meteohub,2013-11-22 17:22:00,
2013-11-22 10:27:00,25.0,4.1,24.53,South,180,11.0,11.0,40,0.00,,,0.00,meteohub,2013-11-22 17:27:00,
2013-11-22 10:32:00,25.5,3.4,24.53,South,180,9.0,11.0,38,0.00,,,0.00,meteohub,2013-11-22 17:32:00,
2013-11-22 10:37:00,25.9,2.7,24.53,South,180,11.0,11.0,36,0.00,,,0.00,meteohub,2013-11-22 17:37:00,
2013-11-22 10:42:00,24.8,3.4,24.53,South,180,11.0,11.0,39,0.00,,,0.00,meteohub,2013-11-22 17:42:00,
2013-11-22 10:47:00,25.0,3.6,24.53,South,180,10.0,12.0,39,0.00,,,0.00,meteohub,2013-11-22 17:47:00,
2013-11-22 10:52:00,25.2,4.3,24.53,South,180,9.0,12.0,40,0.00,,,0.00,meteohub,2013-11-22 17:52:00,
2013-11-22 10:57:00,25.3,4.5,24.53,South,180,9.0,12.0,40,0.00,,,0.00,meteohub,2013-11-22 17:57:00,
2013-11-22 11:02:00,25.5,5.0,24.53,South,180,11.0,11.0,41,0.00,,,0.00,meteohub,2013-11-22 18:02:00,
2013-11-22 11:07:00,25.5,5.0,24.53,South,180,11.0,11.0,41,0.00,,,0.00,meteohub,2013-11-22 18:07:00,
2013-11-22 11:12:00,25.5,4.5,24.53,South,180,8.0,11.0,40,0.00,,,0.00,meteohub,2013-11-22 18:12:00,
2013-11-22 11:17:00,25.7,4.1,24.53,South,180,9.0,11.0,39,0.00,,,0.00,meteohub,2013-11-22 18:17:00,
2013-11-22 11:22:00,25.9,5.9,24.52,South,180,10.0,11.0,42,0.00,,,0.00,meteohub,2013-11-22 18:22:00,
2013-11-22 11:27:00,26.2,7.3,24.53,South,180,9.0,12.0,44,0.00,,,0.00,meteohub,2013-11-22 18:27:00,
2013-11-22 11:32:00,26.6,6.1,24.53,South,180,9.0,12.0,41,0.00,,,0.00,meteohub,2013-11-22 18:32:00,
2013-11-22 11:37:00,26.6,5.5,24.53,South,180,10.0,12.0,40,0.00,,,0.00,meteohub,2013-11-22 18:37:00,
2013-11-22 11:42:00,26.2,5.7,24.53,SE,135,10.0,11.0,41,0.00,,,0.00,meteohub,2013-11-22 18:42:00,
2013-11-22 11:47:00,26.2,5.7,24.53,South,180,10.0,11.0,41,0.00,,,0.00,meteohub,2013-11-22 18:47:00,
2013-11-22 11:52:00,26.1,5.5,24.53,SSE,158,9.0,11.0,41,0.00,,,0.00,meteohub,2013-11-22 18:52:00,
2013-11-22 11:57:00,26.4,5.9,24.53,SSE,158,9.0,11.0,41,0.00,,,0.00,meteohub,2013-11-22 18:57:00,
2013-11-22 12:02:00,26.6,6.1,24.53,SSE,158,8.0,11.0,41,0.00,,,0.00,meteohub,2013-11-22 19:02:00,
2013-11-22 12:07:00,26.6,6.1,24.52,SSE,158,8.0,11.0,41,0.00,,,0.00,meteohub,2013-11-22 19:07:00,
2013-11-22 12:12:00,27.5,5.7,24.53,South,180,11.0,14.0,39,0.00,,,0.00,meteohub,2013-11-22 19:12:00,
2013-11-22 12:17:00,27.5,7.3,24.52,SE,135,12.0,14.0,42,0.00,,,0.00,meteohub,2013-11-22 19:17:00,
2013-11-22 12:22:00,27.5,5.7,24.53,SE,135,12.0,15.0,39,0.00,,,0.00,meteohub,2013-11-22 19:22:00,
2013-11-22 12:27:00,27.3,6.8,24.53,SE,135,12.0,15.0,41,0.00,,,0.00,meteohub,2013-11-22 19:27:00,
2013-11-22 12:32:00,27.7,7.0,24.53,SE,135,11.0,15.0,41,0.00,,,0.00,meteohub,2013-11-22 19:32:00,
2013-11-22 12:37:00,27.9,7.2,24.53,SSE,158,9.0,14.0,41,0.00,,,0.00,meteohub,2013-11-22 19:37:00,
2013-11-22 12:42:00,28.4,7.2,24.53,SE,135,9.0,14.0,40,0.00,,,0.00,meteohub,2013-11-22 19:42:00,
2013-11-22 12:47:00,29.3,6.8,24.53,SSE,158,11.0,14.0,38,0.00,,,0.00,meteohub,2013-11-22 19:47:00,
2013-11-22 12:52:00,29.7,8.2,24.53,South,180,9.0,13.0,40,0.00,,,0.00,meteohub,2013-11-22 19:52:00,
2013-11-22 12:57:00,30.4,8.4,24.53,South,180,11.0,13.0,39,0.00,,,0.00,meteohub,2013-11-22 19:57:00,
2013-11-22 13:02:00,30.2,7.7,24.53,SSE,158,11.0,15.0,38,0.00,,,0.00,meteohub,2013-11-22 20:02:00,
2013-11-22 13:07:00,30.2,7.7,24.52,SSE,158,11.0,15.0,38,0.00,,,0.00,meteohub,2013-11-22 20:07:00,
2013-11-22 13:12:00,29.1,6.1,24.53,SE,135,12.0,15.0,37,0.00,,,0.00,meteohub,2013-11-22 20:12:00,
2013-11-22 13:17:00,29.7,6.6,24.53,South,180,11.0,15.0,37,0.00,,,0.00,meteohub,2013-11-22 20:17:00,
2013-11-22 13:22:00,29.8,6.8,24.52,South,180,15.0,15.0,37,0.00,,,0.00,meteohub,2013-11-22 20:22:00,
2013-11-22 13:27:00,29.5,8.1,24.52,SSE,158,11.0,15.0,40,0.00,,,0.00,meteohub,2013-11-22 20:27:00,
2013-11-22 13:32:00,29.3,7.3,24.53,SE,135,11.0,15.0,39,0.00,,,0.00,meteohub,2013-11-22 20:32:00,
2013-11-22 13:37:00,29.5,6.4,24.52,South,180,15.0,15.0,37,0.00,,,0.00,meteohub,2013-11-22 20:37:00,
2013-11-22 13:42:00,29.1,6.6,24.53,SE,135,16.0,18.0,38,0.00,,,0.00,meteohub,2013-11-22 20:42:00,
2013-11-22 13:47:00,29.3,5.7,24.53,South,180,11.0,18.0,36,0.00,,,0.00,meteohub,2013-11-22 20:47:00,
2013-11-22 13:52:00,29.7,7.2,24.52,SSE,158,11.0,18.0,38,0.00,,,0.00,meteohub,2013-11-22 20:52:00,
2013-11-22 13:57:00,29.5,5.7,24.53,SE,135,15.0,16.0,36,0.00,,,0.00,meteohub,2013-11-22 20:57:00,
2013-11-22 14:02:00,29.5,6.4,24.53,SE,135,12.0,15.0,37,0.00,,,0.00,meteohub,2013-11-22 21:02:00,
2013-11-22 14:07:00,29.5,6.4,24.53,SE,135,12.0,15.0,37,0.00,,,0.00,meteohub,2013-11-22 21:07:00,
2013-11-22 14:12:00,30.4,6.1,24.53,South,180,8.0,15.0,35,0.00,,,0.00,meteohub,2013-11-22 21:12:00,
2013-11-22 14:17:00,30.2,7.0,24.53,South,180,12.0,14.0,37,0.00,,,0.00,meteohub,2013-11-22 21:17:00,
2013-11-22 14:22:00,30.4,5.4,24.53,South,180,12.0,14.0,34,0.00,,,0.00,meteohub,2013-11-22 21:22:00,
2013-11-22 14:27:00,30.0,6.3,24.52,South,180,13.0,14.0,36,0.00,,,0.00,meteohub,2013-11-22 21:27:00,
2013-11-22 14:32:00,28.9,5.9,24.52,South,180,12.0,13.0,37,0.00,,,0.00,meteohub,2013-11-22 21:32:00,
2013-11-22 14:37:00,28.4,5.4,24.52,SE,135,12.0,15.0,37,0.00,,,0.00,meteohub,2013-11-22 21:37:00,
2013-11-22 14:42:00,29.3,5.0,24.52,South,180,12.0,15.0,35,0.00,,,0.00,meteohub,2013-11-22 21:42:00,
2013-11-22 14:47:00,29.5,5.2,24.52,South,180,12.0,15.0,35,0.00,,,0.00,meteohub,2013-11-22 21:47:00,
2013-11-22 14:52:00,29.7,4.6,24.52,South,180,11.0,15.0,34,0.00,,,0.00,meteohub,2013-11-22 21:52:00,
2013-11-22 14:57:00,29.5,5.2,24.52,South,180,11.0,14.0,35,0.00,,,0.00,meteohub,2013-11-22 21:57:00,
2013-11-22 15:02:00,29.7,4.6,24.52,South,180,10.0,14.0,34,0.00,,,0.00,meteohub,2013-11-22 22:02:00,
2013-11-22 15:07:00,29.7,4.6,24.53,South,180,10.0,14.0,34,0.00,,,0.00,meteohub,2013-11-22 22:07:00,
2013-11-22 15:12:00,30.0,5.7,24.52,South,180,12.0,14.0,35,0.00,,,0.00,meteohub,2013-11-22 22:12:00,
2013-11-22 15:17:00,29.5,4.6,24.52,SSE,158,13.0,13.0,34,0.00,,,0.00,meteohub,2013-11-22 22:17:00,
2013-11-22 15:22:00,29.5,4.6,24.52,South,180,12.0,14.0,34,0.00,,,0.00,meteohub,2013-11-22 22:22:00,
2013-11-22 15:27:00,29.3,5.0,24.53,SSE,158,12.0,14.0,35,0.00,,,0.00,meteohub,2013-11-22 22:27:00,
2013-11-22 15:32:00,29.3,5.0,24.53,SSE,158,12.0,14.0,35,0.00,,,0.00,meteohub,2013-11-22 22:32:00,
2013-11-22 15:37:00,29.1,6.1,24.53,South,180,11.0,12.0,37,0.00,,,0.00,meteohub,2013-11-22 22:37:00,
2013-11-22 15:42:00,29.1,5.5,24.53,South,180,9.0,12.0,36,0.00,,,0.00,meteohub,2013-11-22 22:42:00,
2013-11-22 15:47:00,28.9,6.4,24.53,South,180,11.0,12.0,38,0.00,,,0.00,meteohub,2013-11-22 22:47:00,
2013-11-22 15:52:00,28.8,6.3,24.53,South,180,8.0,12.0,38,0.00,,,0.00,meteohub,2013-11-22 22:52:00,
2013-11-22 15:57:00,28.6,6.3,24.53,South,180,8.0,11.0,38,0.00,,,0.00,meteohub,2013-11-22 22:57:00,
2013-11-22 16:02:00,28.4,6.1,24.53,SSE,158,9.0,11.0,38,0.00,,,0.00,meteohub,2013-11-22 23:02:00,
2013-11-22 16:07:00,28.4,6.1,24.53,SSE,158,9.0,11.0,38,0.00,,,0.00,meteohub,2013-11-22 23:07:00,
2013-11-22 16:12:00,28.0,5.7,24.53,South,180,6.0,11.0,38,0.00,,,0.00,meteohub,2013-11-22 23:12:00,
2013-11-22 16:17:00,28.0,5.7,24.52,South,180,7.0,9.0,38,0.00,,,0.00,meteohub,2013-11-22 23:17:00,
2013-11-22 16:22:00,27.7,5.4,24.53,South,180,8.0,9.0,38,0.00,,,0.00,meteohub,2013-11-22 23:22:00,
2013-11-22 16:27:00,27.5,5.2,24.52,South,180,7.0,8.0,38,0.00,,,0.00,meteohub,2013-11-22 23:27:00,
2013-11-22 16:32:00,27.3,5.5,24.53,South,180,5.0,8.0,39,0.00,,,0.00,meteohub,2013-11-22 23:32:00,
2013-11-22 16:37:00,27.1,4.8,24.53,South,180,4.0,8.0,38,0.00,,,0.00,meteohub,2013-11-22 23:37:00,
2013-11-22 16:42:00,26.8,4.6,24.52,South,180,6.0,8.0,38,0.00,,,0.00,meteohub,2013-11-22 23:42:00,
2013-11-22 16:47:00,26.8,4.6,24.53,South,180,6.0,6.0,38,0.00,,,0.00,meteohub,2013-11-22 23:47:00,
2013-11-22 16:52:00,26.8,3.4,24.53,SW,225,7.0,7.0,36,0.00,,,0.00,meteohub,2013-11-22 23:52:00,
2013-11-22 16:57:00,27.1,3.7,24.53,SW,225,8.0,8.0,36,0.00,,,0.00,meteohub,2013-11-22 23:57:00,
2013-11-22 17:02:00,27.0,3.6,24.53,SSW,203,8.0,8.0,36,0.00,,,0.00,meteohub,2013-11-23 00:02:00,
2013-11-22 17:07:00,27.0,3.6,24.53,SSW,203,8.0,8.0,36,0.00,,,0.00,meteohub,2013-11-23 00:07:00,
2013-11-22 17:12:00,26.8,3.4,24.53,SSW,203,8.0,8.0,36,0.00,,,0.00,meteohub,2013-11-23 00:12:00,
2013-11-22 17:17:00,26.8,3.4,24.53,South,180,8.0,8.0,36,0.00,,,0.00,meteohub,2013-11-23 00:17:00,
2013-11-22 17:22:00,26.8,3.4,24.53,South,180,8.0,8.0,36,0.00,,,0.00,meteohub,2013-11-23 00:22:00,
2013-11-22 17:27:00,26.6,3.7,24.53,South,180,8.0,8.0,37,0.00,,,0.00,meteohub,2013-11-23 00:27:00,
2013-11-22 17:32:00,26.2,4.1,24.53,South,180,6.0,8.0,38,0.00,,,0.00,meteohub,2013-11-23 00:32:00,
2013-11-22 17:37:00,25.7,4.1,24.53,South,180,5.0,8.0,39,0.00,,,0.00,meteohub,2013-11-23 00:37:00,
2013-11-22 17:42:00,25.2,4.8,24.53,South,180,6.0,8.0,41,0.00,,,0.00,meteohub,2013-11-23 00:42:00,
2013-11-22 17:47:00,25.2,5.4,24.53,South,180,5.0,6.0,42,0.00,,,0.00,meteohub,2013-11-23 00:47:00,
2013-11-22 17:52:00,25.3,5.0,24.53,South,180,6.0,6.0,41,0.00,,,0.00,meteohub,2013-11-23 00:52:00,
2013-11-22 17:57:00,25.3,5.0,24.53,South,180,9.0,9.0,41,0.00,,,0.00,meteohub,2013-11-23 00:57:00,
2013-11-22 18:02:00,25.5,4.5,24.53,South,180,8.0,9.0,40,0.00,,,0.00,meteohub,2013-11-23 01:02:00,
2013-11-22 18:07:00,25.5,4.5,24.53,South,180,8.0,9.0,40,0.00,,,0.00,meteohub,2013-11-23 01:07:00,
2013-11-22 18:12:00,25.3,3.9,24.53,South,180,8.0,9.0,39,0.00,,,0.00,meteohub,2013-11-23 01:12:00,
2013-11-22 18:17:00,25.0,4.1,24.53,South,180,8.0,8.0,40,0.00,,,0.00,meteohub,2013-11-23 01:17:00,
2013-11-22 18:22:00,25.0,4.1,24.53,South,180,8.0,8.0,40,0.00,,,0.00,meteohub,2013-11-23 01:22:00,
2013-11-22 18:27:00,24.8,3.9,24.53,South,180,9.0,9.0,40,0.00,,,0.00,meteohub,2013-11-23 01:27:00,
2013-11-22 18:32:00,25.0,3.6,24.53,South,180,9.0,9.0,39,0.00,,,0.00,meteohub,2013-11-23 01:32:00,
2013-11-22 18:37:00,25.0,3.6,24.53,South,180,10.0,11.0,39,0.00,,,0.00,meteohub,2013-11-23 01:37:00,
2013-11-22 18:42:00,24.8,3.4,24.53,South,180,10.0,11.0,39,0.00,,,0.00,meteohub,2013-11-23 01:42:00,
2013-11-22 18:47:00,24.8,3.4,24.52,South,180,9.0,11.0,39,0.00,,,0.00,meteohub,2013-11-23 01:47:00,
2013-11-22 18:52:00,24.6,3.7,24.53,South,180,9.0,11.0,40,0.00,,,0.00,meteohub,2013-11-23 01:52:00,
2013-11-22 18:57:00,24.6,3.2,24.53,South,180,9.0,10.0,39,0.00,,,0.00,meteohub,2013-11-23 01:57:00,
2013-11-22 19:02:00,24.4,3.6,24.53,South,180,9.0,10.0,40,0.00,,,0.00,meteohub,2013-11-23 02:02:00,
2013-11-22 19:07:00,24.4,3.6,24.54,South,180,9.0,10.0,40,0.00,,,0.00,meteohub,2013-11-23 02:07:00,
2013-11-22 19:12:00,24.4,3.6,24.53,South,180,8.0,9.0,40,0.00,,,0.00,meteohub,2013-11-23 02:12:00,
2013-11-22 19:17:00,24.3,3.9,24.53,South,180,8.0,9.0,41,0.00,,,0.00,meteohub,2013-11-23 02:17:00,
2013-11-22 19:22:00,23.9,4.1,24.53,South,180,9.0,9.0,42,0.00,,,0.00,meteohub,2013-11-23 02:22:00,
2013-11-22 19:27:00,23.5,4.3,24.53,South,180,8.0,9.0,43,0.00,,,0.00,meteohub,2013-11-23 02:27:00,
2013-11-22 19:32:00,23.5,4.3,24.54,South,180,8.0,9.0,43,0.00,,,0.00,meteohub,2013-11-23 02:32:00,
2013-11-22 19:37:00,23.4,4.1,24.53,South,180,9.0,9.0,43,0.00,,,0.00,meteohub,2013-11-23 02:37:00,
2013-11-22 19:42:00,23.0,4.3,24.53,South,180,11.0,11.0,44,0.00,,,0.00,meteohub,2013-11-23 02:42:00,
2013-11-22 19:47:00,22.8,4.6,24.53,South,180,12.0,12.0,45,0.00,,,0.00,meteohub,2013-11-23 02:47:00,
2013-11-22 19:52:00,23.0,4.3,24.53,South,180,12.0,12.0,44,0.00,,,0.00,meteohub,2013-11-23 02:52:00,
2013-11-22 19:57:00,23.0,4.3,24.53,South,180,11.0,12.0,44,0.00,,,0.00,meteohub,2013-11-23 02:57:00,
2013-11-22 20:02:00,22.8,4.1,24.53,South,180,11.0,12.0,44,0.00,,,0.00,meteohub,2013-11-23 03:02:00,
2013-11-22 20:07:00,22.8,4.1,24.53,South,180,11.0,12.0,44,0.00,,,0.00,meteohub,2013-11-23 03:07:00,
2013-11-22 20:12:00,22.5,4.3,24.53,South,180,11.0,11.0,45,0.00,,,0.00,meteohub,2013-11-23 03:12:00,
2013-11-22 20:17:00,22.3,4.6,24.53,South,180,11.0,11.0,46,0.00,,,0.00,meteohub,2013-11-23 03:17:00,
2013-11-22 20:22:00,22.5,4.3,24.54,South,180,10.0,11.0,45,0.00,,,0.00,meteohub,2013-11-23 03:22:00,
2013-11-22 20:27:00,22.5,4.3,24.54,South,180,11.0,11.0,45,0.00,,,0.00,meteohub,2013-11-23 03:27:00,
2013-11-22 20:32:00,22.3,4.6,24.54,South,180,11.0,11.0,46,0.00,,,0.00,meteohub,2013-11-23 03:32:00,
2013-11-22 20:37:00,22.3,4.6,24.54,South,180,12.0,12.0,46,0.00,,,0.00,meteohub,2013-11-23 03:37:00,
2013-11-22 20:42:00,22.1,4.5,24.53,South,180,11.0,12.0,46,0.00,,,0.00,meteohub,2013-11-23 03:42:00,
2013-11-22 20:47:00,22.3,4.6,24.54,South,180,11.0,12.0,46,0.00,,,0.00,meteohub,2013-11-23 03:47:00,
2013-11-22 20:52:00,22.3,4.6,24.53,South,180,11.0,12.0,46,0.00,,,0.00,meteohub,2013-11-23 03:52:00,
2013-11-22 20:57:00,22.5,4.3,24.53,South,180,11.0,12.0,45,0.00,,,0.00,meteohub,2013-11-23 03:57:00,
2013-11-22 21:02:00,22.6,4.5,24.54,South,180,11.0,11.0,45,0.00,,,0.00,meteohub,2013-11-23 04:02:00,
2013-11-22 21:07:00,22.6,4.5,24.54,South,180,11.0,12.0,45,0.00,,,0.00,meteohub,2013-11-23 04:07:00,
2013-11-22 21:12:00,22.1,4.5,24.54,South,180,11.0,12.0,46,0.00,,,0.00,meteohub,2013-11-23 04:12:00,
2013-11-22 21:17:00,21.9,4.8,24.54,South,180,10.0,11.0,47,0.00,,,0.00,meteohub,2013-11-23 04:17:00,
2013-11-22 21:22:00,21.9,4.8,24.54,South,180,10.0,11.0,47,0.00,,,0.00,meteohub,2013-11-23 04:22:00,
2013-11-22 21:27:00,21.9,4.3,24.53,South,180,10.0,11.0,46,0.00,,,0.00,meteohub,2013-11-23 04:27:00,
2013-11-22 21:32:00,21.9,4.3,24.53,South,180,11.0,11.0,46,0.00,,,0.00,meteohub,2013-11-23 04:32:00,
2013-11-22 21:37:00,21.7,4.6,24.53,South,180,11.0,11.0,47,0.00,,,0.00,meteohub,2013-11-23 04:37:00,
2013-11-22 21:42:00,21.4,4.8,24.53,South,180,13.0,13.0,48,0.00,,,0.00,meteohub,2013-11-23 04:42:00,
2013-11-22 21:47:00,21.2,5.0,24.53,South,180,15.0,15.0,49,0.00,,,0.00,meteohub,2013-11-23 04:47:00,
2013-11-22 21:52:00,21.4,4.8,24.53,South,180,14.0,15.0,48,0.00,,,0.00,meteohub,2013-11-23 04:52:00,
2013-11-22 21:57:00,21.4,5.2,24.53,South,180,15.0,15.0,49,0.00,,,0.00,meteohub,2013-11-23 04:57:00,
2013-11-22 22:02:00,21.2,5.0,24.52,South,180,15.0,16.0,49,0.00,,,0.00,meteohub,2013-11-23 05:02:00,
2013-11-22 22:07:00,21.2,5.0,24.52,South,180,15.0,16.0,49,0.00,,,0.00,meteohub,2013-11-23 05:07:00,
2013-11-22 22:12:00,21.2,5.0,24.53,South,180,13.0,16.0,49,0.00,,,0.00,meteohub,2013-11-23 05:12:00,
2013-11-22 22:17:00,20.8,4.6,24.53,South,180,15.0,15.0,49,0.00,,,0.00,meteohub,2013-11-23 05:17:00,
2013-11-22 22:22:00,20.7,4.5,24.52,South,180,14.0,15.0,49,0.00,,,0.00,meteohub,2013-11-23 05:22:00,
2013-11-22 22:27:00,20.7,4.5,24.52,South,180,13.0,15.0,49,0.00,,,0.00,meteohub,2013-11-23 05:27:00,
2013-11-22 22:32:00,20.8,4.6,24.52,South,180,13.0,15.0,49,0.00,,,0.00,meteohub,2013-11-23 05:32:00,
2013-11-22 22:37:00,20.8,4.6,24.52,South,180,11.0,15.0,49,0.00,,,0.00,meteohub,2013-11-23 05:37:00,
2013-11-22 22:42:00,20.8,4.3,24.52,South,180,12.0,14.0,48,0.00,,,0.00,meteohub,2013-11-23 05:42:00,
2013-11-22 22:47:00,21.0,4.5,24.52,South,180,13.0,15.0,48,0.00,,,0.00,meteohub,2013-11-23 05:47:00,
2013-11-22 22:52:00,21.0,4.8,24.52,South,180,14.0,15.0,49,0.00,,,0.00,meteohub,2013-11-23 05:52:00,
2013-11-22 22:57:00,20.7,4.5,24.52,South,180,14.0,15.0,49,0.00,,,0.00,meteohub,2013-11-23 05:57:00,
2013-11-22 23:02:00,20.7,4.5,24.52,South,180,13.0,15.0,49,0.00,,,0.00,meteohub,2013-11-23 06:02:00,
2013-11-22 23:07:00,20.7,4.5,24.53,South,180,13.0,14.0,49,0.00,,,0.00,meteohub,2013-11-23 06:07:00,
2013-11-22 23:12:00,20.8,4.6,24.52,South,180,13.0,14.0,49,0.00,,,0.00,meteohub,2013-11-23 06:12:00,
2013-11-22 23:17:00,20.7,4.5,24.52,South,180,13.0,13.0,49,0.00,,,0.00,meteohub,2013-11-23 06:17:00,
2013-11-22 23:22:00,20.7,4.5,24.52,South,180,12.0,14.0,49,0.00,,,0.00,meteohub,2013-11-23 06:22:00,
2013-11-22 23:27:00,20.3,4.6,24.52,South,180,12.0,14.0,50,0.00,,,0.00,meteohub,2013-11-23 06:27:00,
2013-11-22 23:32:00,20.3,4.6,24.52,South,180,15.0,15.0,50,0.00,,,0.00,meteohub,2013-11-23 06:32:00,
2013-11-22 23:37:00,20.3,4.6,24.52,South,180,15.0,15.0,50,0.00,,,0.00,meteohub,2013-11-23 06:37:00,
2013-11-22 23:42:00,20.1,4.1,24.52,South,180,15.0,17.0,49,0.00,,,0.00,meteohub,2013-11-23 06:42:00,
2013-11-22 23:47:00,20.1,4.5,24.52,South,180,15.0,17.0,50,0.00,,,0.00,meteohub,2013-11-23 06:47:00,
2013-11-22 23:52:00,20.1,4.5,24.52,South,180,15.0,17.0,50,0.00,,,0.00,meteohub,2013-11-23 06:52:00,
2013-11-22 23:57:00,20.3,4.1,24.52,South,180,14.0,15.0,49,0.00,,,0.00,meteohub,2013-11-23 06:57:00,